GCLP

Gran Canaria Airport

Gran Canaria Island, Spain
METAR GCLP 181330Z 01023KT 340V040 9999 FEW025 19/13 Q1023 NOSIG
Observed Flight Rules
Jan-18 @ 13:30 UTC (15 minutes ago) Visual Flight Rules
Wind Visibility Clouds
10° at 23 knots 10,000+ meters
  • Few at 2,500' AGL
Temperatures Readings
Current 19°C / 66°F
Dewpoint 13°C / 55°F
Humidity 68%
Altimeter 30.21" Hg
Pressure 1022.92 hPa
Elevation 25
METAR GCLP 181330Z 01023KT 340V040 9999 FEW025 19/13 Q1023 NOSIG
Observed Flight Rules
Jan-18 @ 13:30 UTC
(15 minutes ago)
VFR
Wind Visibility
10° at 23 knots 10,000+ meters
Clouds
  • Few at 2,500' AGL
Temperature Dewpoint
19°C / 66°F 13°C / 55°F
Humidity Altimeter Pressure
68% 30.21" Hg 1022.92 hPa